createdAt,value
2018-07-15T00:00:20.000Z,100625
2018-07-15T00:01:20.000Z,100616
2018-07-15T00:03:20.000Z,100624
2018-07-15T00:04:20.000Z,100618
2018-07-15T00:06:20.000Z,100626
2018-07-15T00:07:20.000Z,100626
2018-07-15T00:09:20.000Z,100626
2018-07-15T00:10:20.000Z,100623
2018-07-15T00:11:20.000Z,100628
2018-07-15T00:13:20.000Z,100626
2018-07-15T00:15:20.000Z,100622
2018-07-15T00:16:20.000Z,100621
2018-07-15T00:18:20.000Z,100619
2018-07-15T00:20:20.000Z,100614
2018-07-15T00:22:20.000Z,100613
2018-07-15T00:24:20.000Z,100610
2018-07-15T00:25:20.000Z,100614
2018-07-15T00:27:20.000Z,100611
2018-07-15T00:28:20.000Z,100611
2018-07-15T00:29:20.000Z,100614
2018-07-15T00:31:20.000Z,100615
2018-07-15T00:32:20.000Z,100607
2018-07-15T00:34:20.000Z,100606
2018-07-15T00:36:20.000Z,100615
2018-07-15T00:38:05.000Z,100609
2018-07-15T00:39:20.000Z,100606
2018-07-15T00:41:20.000Z,100608
2018-07-15T00:43:05.000Z,100608
2018-07-15T00:45:20.000Z,100606
2018-07-15T00:47:05.000Z,100605
2018-07-15T00:48:20.000Z,100609
2018-07-15T00:50:20.000Z,100604
2018-07-15T00:52:20.000Z,100604
2018-07-15T00:54:20.000Z,100597
2018-07-15T00:55:20.000Z,100603
2018-07-15T00:57:20.000Z,100604
2018-07-15T00:59:20.000Z,100600
2018-07-15T01:01:05.000Z,100606
2018-07-15T01:02:06.000Z,100600
2018-07-15T01:03:21.000Z,100599
2018-07-15T01:05:21.000Z,100599
2018-07-15T01:07:21.000Z,100600
2018-07-15T01:09:21.000Z,100601
2018-07-15T01:10:21.000Z,100595
2018-07-15T01:11:21.000Z,100604
2018-07-15T01:13:21.000Z,100594
2018-07-15T01:14:21.000Z,100599
2018-07-15T01:16:21.000Z,100598
2018-07-15T01:18:21.000Z,100598
2018-07-15T01:20:21.000Z,100589
2018-07-15T01:22:21.000Z,100587
2018-07-15T01:23:21.000Z,100588
2018-07-15T01:24:21.000Z,100590
2018-07-15T01:25:21.000Z,100584
2018-07-15T01:26:21.000Z,100585
2018-07-15T01:28:21.000Z,100578
2018-07-15T01:30:21.000Z,100589
2018-07-15T01:32:21.000Z,100587
2018-07-15T01:34:06.000Z,100578
2018-07-15T01:35:21.000Z,100576
2018-07-15T01:36:21.000Z,100583
2018-07-15T01:38:21.000Z,100579
2018-07-15T01:40:06.000Z,100582
2018-07-15T01:41:21.000Z,100581
2018-07-15T01:42:21.000Z,100587
2018-07-15T01:44:21.000Z,100586
2018-07-15T01:46:21.000Z,100584
2018-07-15T01:48:21.000Z,100576
2018-07-15T01:49:21.000Z,100582
2018-07-15T01:50:51.000Z,100582
2018-07-15T01:52:21.000Z,100586
2018-07-15T01:53:21.000Z,100582
2018-07-15T01:55:06.000Z,100579
2018-07-15T01:56:21.000Z,100583
2018-07-15T01:58:21.000Z,100579
2018-07-15T02:00:21.000Z,100580
2018-07-15T02:02:21.000Z,100573
2018-07-15T02:04:21.000Z,100575
2018-07-15T02:05:21.000Z,100579
2018-07-15T02:07:21.000Z,100577
2018-07-15T02:09:21.000Z,100568
2018-07-15T02:10:21.000Z,100572
2018-07-15T02:11:21.000Z,100572
2018-07-15T02:12:21.000Z,100566
2018-07-15T02:14:21.000Z,100566
2018-07-15T02:16:21.000Z,100575
2018-07-15T02:17:21.000Z,100571
2018-07-15T02:19:21.000Z,100575
2018-07-15T02:20:21.000Z,100574
2018-07-15T02:22:05.000Z,100576
2018-07-15T02:23:21.000Z,100576
2018-07-15T02:25:21.000Z,100582
2018-07-15T02:27:21.000Z,100575
2018-07-15T02:29:21.000Z,100565
2018-07-15T02:31:21.000Z,100576
2018-07-15T02:32:21.000Z,100575
2018-07-15T02:33:21.000Z,100573
2018-07-15T02:35:21.000Z,100575
2018-07-15T02:37:21.000Z,100577
2018-07-15T02:39:05.000Z,100575
2018-07-15T02:40:05.000Z,100575
2018-07-15T02:41:21.000Z,100580
2018-07-15T02:42:21.000Z,100579
2018-07-15T02:44:05.000Z,100584
2018-07-15T02:45:21.000Z,100579
2018-07-15T02:46:21.000Z,100578
2018-07-15T02:48:21.000Z,100578
2018-07-15T02:49:21.000Z,100574
2018-07-15T02:50:21.000Z,100574
2018-07-15T02:52:05.000Z,100567
2018-07-15T02:53:21.000Z,100576
2018-07-15T02:55:21.000Z,100573
2018-07-15T02:57:05.000Z,100573
2018-07-15T02:58:21.000Z,100573
2018-07-15T02:59:21.000Z,100572
2018-07-15T03:01:21.000Z,100578
2018-07-15T03:03:21.000Z,100573
2018-07-15T03:04:21.000Z,100571
2018-07-15T03:06:21.000Z,100566
2018-07-15T03:08:21.000Z,100565
2018-07-15T03:10:21.000Z,100567
2018-07-15T03:12:21.000Z,100568
2018-07-15T03:13:21.000Z,100564
2018-07-15T03:15:21.000Z,100564
2018-07-15T03:16:21.000Z,100563
2018-07-15T03:17:21.000Z,100561
2018-07-15T03:19:21.000Z,100568
2018-07-15T03:21:21.000Z,100567
2018-07-15T03:23:21.000Z,100567
2018-07-15T03:25:21.000Z,100562
2018-07-15T03:27:21.000Z,100563
2018-07-15T03:29:05.000Z,100559
2018-07-15T03:30:21.000Z,100555
2018-07-15T03:32:21.000Z,100560
2018-07-15T03:34:21.000Z,100562
2018-07-15T03:36:21.000Z,100562
2018-07-15T03:38:21.000Z,100557
2018-07-15T03:40:21.000Z,100558
2018-07-15T03:42:21.000Z,100560
2018-07-15T03:43:21.000Z,100563
2018-07-15T03:45:21.000Z,100560
2018-07-15T03:46:21.000Z,100560
2018-07-15T03:48:21.000Z,100555
2018-07-15T03:50:21.000Z,100555
2018-07-15T03:51:21.000Z,100557
2018-07-15T03:53:21.000Z,100553
2018-07-15T03:55:21.000Z,100549
2018-07-15T03:57:21.000Z,100545
2018-07-15T03:59:21.000Z,100547
2018-07-15T04:01:21.000Z,100542
2018-07-15T04:03:21.000Z,100543
2018-07-15T04:05:21.000Z,100540
2018-07-15T04:06:21.000Z,100540
2018-07-15T04:07:21.000Z,100544
2018-07-15T04:09:21.000Z,100540
2018-07-15T04:11:21.000Z,100538
2018-07-15T04:13:05.000Z,100537
2018-07-15T04:14:05.000Z,100535
2018-07-15T04:15:21.000Z,100536
2018-07-15T04:16:21.000Z,100528
2018-07-15T04:18:21.000Z,100532
2018-07-15T04:19:21.000Z,100531
2018-07-15T04:21:21.000Z,100528
2018-07-15T04:22:21.000Z,100532
2018-07-15T04:24:21.000Z,100526
2018-07-15T04:26:21.000Z,100530
2018-07-15T04:28:21.000Z,100534
2018-07-15T04:29:21.000Z,100531
2018-07-15T04:31:05.000Z,100534
2018-07-15T04:32:21.000Z,100531
2018-07-15T04:34:21.000Z,100533
2018-07-15T04:36:21.000Z,100525
2018-07-15T04:37:21.000Z,100529
2018-07-15T04:39:21.000Z,100528
2018-07-15T04:41:21.000Z,100526
2018-07-15T04:42:21.000Z,100525
2018-07-15T04:47:21.000Z,100536
2018-07-15T04:48:51.000Z,100533
2018-07-15T04:50:06.000Z,100537
2018-07-15T04:51:36.000Z,100530
2018-07-15T04:53:06.000Z,100535
2018-07-15T04:55:06.000Z,100534
2018-07-15T04:56:06.000Z,100537
2018-07-15T04:58:06.000Z,100537
2018-07-15T04:59:51.000Z,100535
2018-07-15T05:01:06.000Z,100532
2018-07-15T05:03:06.000Z,100530
2018-07-15T05:05:06.000Z,100530
2018-07-15T05:07:06.000Z,100529
2018-07-15T05:09:06.000Z,100537
2018-07-15T05:10:51.000Z,100531
2018-07-15T05:12:06.000Z,100540
2018-07-15T05:14:06.000Z,100533
2018-07-15T05:16:06.000Z,100541
2018-07-15T05:18:07.000Z,100537
2018-07-15T05:20:07.000Z,100545
2018-07-15T05:21:07.000Z,100545
2018-07-15T05:22:52.000Z,100541
2018-07-15T05:24:07.000Z,100543
2018-07-15T05:25:07.000Z,100542
2018-07-15T05:27:07.000Z,100545
2018-07-15T05:28:07.000Z,100543
2018-07-15T05:29:07.000Z,100542
2018-07-15T05:31:07.000Z,100543
2018-07-15T05:32:07.000Z,100548
2018-07-15T05:34:07.000Z,100547
2018-07-15T05:36:07.000Z,100547
2018-07-15T05:37:07.000Z,100547
2018-07-15T05:39:07.000Z,100544
2018-07-15T05:41:07.000Z,100549
2018-07-15T05:42:07.000Z,100545
2018-07-15T05:43:07.000Z,100540
2018-07-15T05:45:07.000Z,100542
2018-07-15T05:47:07.000Z,100544
2018-07-15T05:48:07.000Z,100538
2018-07-15T05:50:07.000Z,100543
2018-07-15T05:52:07.000Z,100547
2018-07-15T05:54:07.000Z,100549
2018-07-15T05:55:07.000Z,100551
2018-07-15T05:56:07.000Z,100552
2018-07-15T05:58:07.000Z,100554
2018-07-15T05:59:07.000Z,100552
2018-07-15T06:01:07.000Z,100550
2018-07-15T06:03:07.000Z,100555
2018-07-15T06:04:07.000Z,100556
2018-07-15T06:05:07.000Z,100557
2018-07-15T06:07:07.000Z,100555
2018-07-15T06:09:07.000Z,100550
2018-07-15T06:10:52.000Z,100547
2018-07-15T06:12:07.000Z,100550
2018-07-15T06:13:07.000Z,100558
2018-07-15T06:15:07.000Z,100556
2018-07-15T06:17:07.000Z,100560
2018-07-15T06:19:07.000Z,100558
2018-07-15T06:21:06.000Z,100555
2018-07-15T06:22:06.000Z,100549
2018-07-15T06:23:06.000Z,100560
2018-07-15T06:25:06.000Z,100557
2018-07-15T06:26:06.000Z,100549
2018-07-15T06:28:06.000Z,100551
2018-07-15T06:29:06.000Z,100555
2018-07-15T06:31:06.000Z,100559
2018-07-15T06:32:06.000Z,100549
2018-07-15T06:34:06.000Z,100553
2018-07-15T06:35:51.000Z,100555
2018-07-15T06:37:06.000Z,100551
2018-07-15T06:39:06.000Z,100553
2018-07-15T06:41:06.000Z,100547
2018-07-15T06:43:06.000Z,100551
2018-07-15T06:44:51.000Z,100545
2018-07-15T06:46:06.000Z,100546
2018-07-15T06:48:06.000Z,100541
2018-07-15T06:50:06.000Z,100551
2018-07-15T06:51:06.000Z,100544
2018-07-15T06:53:06.000Z,100551
2018-07-15T06:54:36.000Z,100549
2018-07-15T06:56:06.000Z,100545
2018-07-15T06:57:51.000Z,100552
2018-07-15T06:59:06.000Z,100549
2018-07-15T07:00:51.000Z,100547
2018-07-15T07:02:06.000Z,100546
2018-07-15T07:03:06.000Z,100547
2018-07-15T07:05:06.000Z,100546
2018-07-15T07:07:06.000Z,100547
2018-07-15T07:08:51.000Z,100548
2018-07-15T07:10:06.000Z,100547
2018-07-15T07:11:51.000Z,100547
2018-07-15T07:13:06.000Z,100546
2018-07-15T07:14:06.000Z,100542
2018-07-15T07:15:51.000Z,100542
2018-07-15T07:17:06.000Z,100541
2018-07-15T07:18:51.000Z,100545
2018-07-15T07:20:06.000Z,100546
2018-07-15T07:22:06.000Z,100544
2018-07-15T07:24:06.000Z,100544
2018-07-15T07:26:06.000Z,100546
2018-07-15T07:27:06.000Z,100547
2018-07-15T07:29:06.000Z,100549
2018-07-15T07:30:06.000Z,100550
2018-07-15T07:31:51.000Z,100543
2018-07-15T07:33:06.000Z,100549
2018-07-15T07:35:06.000Z,100544
2018-07-15T07:36:51.000Z,100545
2018-07-15T07:38:06.000Z,100546
2018-07-15T07:39:06.000Z,100547
2018-07-15T07:41:06.000Z,100546
2018-07-15T07:43:06.000Z,100541
2018-07-15T07:44:06.000Z,100547
2018-07-15T07:46:06.000Z,100548
2018-07-15T07:47:06.000Z,100547
2018-07-15T07:49:06.000Z,100546
2018-07-15T07:51:06.000Z,100544
2018-07-15T07:52:06.000Z,100550
2018-07-15T07:53:06.000Z,100545
2018-07-15T07:55:06.000Z,100550
2018-07-15T07:56:06.000Z,100549
2018-07-15T07:58:06.000Z,100550
2018-07-15T08:00:06.000Z,100547
2018-07-15T08:01:06.000Z,100550
2018-07-15T08:02:51.000Z,100545
2018-07-15T08:04:06.000Z,100542
2018-07-15T08:06:06.000Z,100547
2018-07-15T08:07:51.000Z,100547
2018-07-15T08:09:06.000Z,100550
2018-07-15T08:10:06.000Z,100551
2018-07-15T08:12:06.000Z,100549
2018-07-15T08:14:06.000Z,100554
2018-07-15T08:16:06.000Z,100550
2018-07-15T08:18:06.000Z,100548
2018-07-15T08:20:06.000Z,100552
2018-07-15T08:21:06.000Z,100544
2018-07-15T08:23:06.000Z,100544
2018-07-15T08:25:06.000Z,100552
2018-07-15T08:27:06.000Z,100545
2018-07-15T08:29:07.000Z,100545
2018-07-15T08:31:07.000Z,100546
2018-07-15T08:32:07.000Z,100543
2018-07-15T08:33:07.000Z,100544
2018-07-15T08:34:51.000Z,100539
2018-07-15T08:36:07.000Z,100543
2018-07-15T08:38:07.000Z,100538
2018-07-15T08:39:07.000Z,100544
2018-07-15T08:41:07.000Z,100540
2018-07-15T08:43:07.000Z,100544
2018-07-15T08:45:07.000Z,100539
2018-07-15T08:46:07.000Z,100542
2018-07-15T08:48:07.000Z,100543
2018-07-15T08:50:07.000Z,100547
2018-07-15T08:51:51.000Z,100543
2018-07-15T08:53:07.000Z,100543
2018-07-15T08:55:07.000Z,100549
2018-07-15T08:56:51.000Z,100542
2018-07-15T08:58:07.000Z,100543
2018-07-15T09:00:07.000Z,100542
2018-07-15T09:02:07.000Z,100540
2018-07-15T09:04:07.000Z,100544
2018-07-15T09:06:07.000Z,100543
2018-07-15T09:08:07.000Z,100545
2018-07-15T09:10:07.000Z,100542
2018-07-15T09:12:07.000Z,100542
2018-07-15T09:13:07.000Z,100538
2018-07-15T09:15:07.000Z,100543
2018-07-15T09:16:07.000Z,100543
2018-07-15T09:18:07.000Z,100542
2018-07-15T09:19:07.000Z,100542
2018-07-15T09:20:51.000Z,100546
2018-07-15T09:22:07.000Z,100539
2018-07-15T09:23:36.000Z,100537
2018-07-15T09:25:07.000Z,100538
2018-07-15T09:26:51.000Z,100537
2018-07-15T09:28:07.000Z,100534
2018-07-15T09:30:07.000Z,100531
2018-07-15T09:31:07.000Z,100529
2018-07-15T09:33:07.000Z,100531
2018-07-15T09:34:07.000Z,100529
2018-07-15T09:36:07.000Z,100529
2018-07-15T09:37:07.000Z,100525
2018-07-15T09:39:07.000Z,100535
2018-07-15T09:40:52.000Z,100530
2018-07-15T09:42:07.000Z,100526
2018-07-15T09:44:07.000Z,100533
2018-07-15T09:46:07.000Z,100534
2018-07-15T09:48:07.000Z,100532
2018-07-15T09:50:07.000Z,100524
2018-07-15T09:52:07.000Z,100535
2018-07-15T09:53:07.000Z,100533
2018-07-15T09:55:07.000Z,100526
2018-07-15T09:57:07.000Z,100524
2018-07-15T09:59:07.000Z,100522
2018-07-15T10:00:07.000Z,100526
2018-07-15T10:02:07.000Z,100533
2018-07-15T10:03:07.000Z,100523
2018-07-15T10:05:07.000Z,100519
2018-07-15T10:06:52.000Z,100526
2018-07-15T10:08:07.000Z,100522
2018-07-15T10:09:07.000Z,100518
2018-07-15T10:10:52.000Z,100519
2018-07-15T10:12:07.000Z,100518
2018-07-15T10:14:07.000Z,100519
2018-07-15T10:15:07.000Z,100518
2018-07-15T10:17:07.000Z,100522
2018-07-15T10:19:07.000Z,100520
2018-07-15T10:20:07.000Z,100517
2018-07-15T10:22:07.000Z,100515
2018-07-15T10:24:07.000Z,100513
2018-07-15T10:25:52.000Z,100511
2018-07-15T10:27:07.000Z,100511
2018-07-15T10:28:07.000Z,100512
2018-07-15T10:30:07.000Z,100507
2018-07-15T10:32:07.000Z,100513
2018-07-15T10:34:07.000Z,100510
2018-07-15T10:36:06.000Z,100511
2018-07-15T10:37:06.000Z,100506
2018-07-15T10:39:06.000Z,100506
2018-07-15T10:40:06.000Z,100505
2018-07-15T10:42:06.000Z,100496
2018-07-15T10:44:06.000Z,100499
2018-07-15T10:46:06.000Z,100496
2018-07-15T10:48:06.000Z,100493
2018-07-15T10:50:06.000Z,100491
2018-07-15T10:52:06.000Z,100493
2018-07-15T10:54:06.000Z,100486
2018-07-15T10:56:06.000Z,100488
2018-07-15T10:58:06.000Z,100487
2018-07-15T10:59:06.000Z,100484
2018-07-15T11:01:06.000Z,100477
2018-07-15T11:03:06.000Z,100479
2018-07-15T11:04:36.000Z,100477
2018-07-15T11:06:06.000Z,100479
2018-07-15T11:08:06.000Z,100478
2018-07-15T11:09:06.000Z,100477
2018-07-15T11:10:51.000Z,100474
2018-07-15T11:12:06.000Z,100472
2018-07-15T11:13:51.000Z,100464
2018-07-15T11:15:06.000Z,100467
2018-07-15T11:16:06.000Z,100465
2018-07-15T11:18:06.000Z,100469
2018-07-15T11:20:06.000Z,100467
2018-07-15T11:21:06.000Z,100466
2018-07-15T11:23:06.000Z,100468
2018-07-15T11:25:06.000Z,100459
2018-07-15T11:27:06.000Z,100461
2018-07-15T11:28:06.000Z,100461
2018-07-15T11:29:51.000Z,100460
2018-07-15T11:31:06.000Z,100450
2018-07-15T11:32:06.000Z,100463
2018-07-15T11:34:06.000Z,100461
2018-07-15T11:36:06.000Z,100462
2018-07-15T11:38:06.000Z,100451
2018-07-15T11:40:07.000Z,100456
2018-07-15T11:42:07.000Z,100455
2018-07-15T11:44:07.000Z,100451
2018-07-15T11:45:52.000Z,100450
2018-07-15T11:47:07.000Z,100452
2018-07-15T11:49:07.000Z,100453
2018-07-15T11:50:07.000Z,100450
2018-07-15T11:52:07.000Z,100447
2018-07-15T11:53:52.000Z,100452
2018-07-15T11:55:07.000Z,100446
2018-07-15T11:56:52.000Z,100450
2018-07-15T11:58:07.000Z,100448
2018-07-15T12:00:07.000Z,100444
2018-07-15T12:02:07.000Z,100441
2018-07-15T12:04:07.000Z,100438
2018-07-15T12:05:07.000Z,100434
2018-07-15T12:07:07.000Z,100430
2018-07-15T12:08:07.000Z,100430
2018-07-15T12:09:07.000Z,100428
2018-07-15T12:10:52.000Z,100423
2018-07-15T12:12:07.000Z,100415
2018-07-15T12:13:52.000Z,100417
2018-07-15T12:15:07.000Z,100423
2018-07-15T12:17:07.000Z,100413
2018-07-15T12:18:52.000Z,100419
2018-07-15T12:20:07.000Z,100420
2018-07-15T12:21:07.000Z,100419
2018-07-15T12:23:07.000Z,100412
2018-07-15T12:25:07.000Z,100417
2018-07-15T12:27:07.000Z,100413
2018-07-15T12:29:07.000Z,100412
2018-07-15T12:30:07.000Z,100412
2018-07-15T12:32:07.000Z,100413
2018-07-15T12:34:07.000Z,100407
2018-07-15T12:36:07.000Z,100398
2018-07-15T12:38:07.000Z,100399
2018-07-15T12:40:07.000Z,100394
2018-07-15T12:42:07.000Z,100388
2018-07-15T12:43:07.000Z,100386
2018-07-15T12:45:07.000Z,100384
2018-07-15T12:47:07.000Z,100391
2018-07-15T12:49:07.000Z,100393
2018-07-15T12:50:51.000Z,100392
2018-07-15T12:52:07.000Z,100384
2018-07-15T12:53:51.000Z,100380
2018-07-15T12:55:07.000Z,100387
2018-07-15T12:57:07.000Z,100382
2018-07-15T12:59:07.000Z,100379
2018-07-15T13:01:07.000Z,100380
2018-07-15T13:02:07.000Z,100375
2018-07-15T13:04:07.000Z,100367
2018-07-15T13:06:07.000Z,100362
2018-07-15T13:08:07.000Z,100364
2018-07-15T13:09:36.000Z,100361
2018-07-15T13:11:07.000Z,100358
2018-07-15T13:12:07.000Z,100362
2018-07-15T13:13:07.000Z,100361
2018-07-15T13:15:07.000Z,100351
2018-07-15T13:16:07.000Z,100353
2018-07-15T13:18:07.000Z,100348
2018-07-15T13:20:07.000Z,100345
2018-07-15T13:21:07.000Z,100346
2018-07-15T13:23:07.000Z,100334
2018-07-15T13:25:07.000Z,100338
2018-07-15T13:27:07.000Z,100325
2018-07-15T13:29:07.000Z,100335
2018-07-15T13:31:07.000Z,100334
2018-07-15T13:32:07.000Z,100337
2018-07-15T13:34:07.000Z,100332
2018-07-15T13:36:07.000Z,100328
2018-07-15T13:38:07.000Z,100329
2018-07-15T13:40:07.000Z,100338
2018-07-15T13:42:07.000Z,100329
2018-07-15T13:43:51.000Z,100329
2018-07-15T13:45:07.000Z,100319
2018-07-15T13:47:07.000Z,100318
2018-07-15T13:49:07.000Z,100314
2018-07-15T13:50:51.000Z,100313
2018-07-15T13:51:51.000Z,100313
2018-07-15T13:53:07.000Z,100312
2018-07-15T13:54:07.000Z,100313
2018-07-15T13:56:07.000Z,100316
2018-07-15T13:57:07.000Z,100315
2018-07-15T13:59:07.000Z,100311
2018-07-15T14:01:07.000Z,100304
2018-07-15T14:03:07.000Z,100302
2018-07-15T14:05:07.000Z,100308
2018-07-15T14:07:07.000Z,100304
2018-07-15T14:08:36.000Z,100303
2018-07-15T14:10:07.000Z,100301
2018-07-15T14:11:07.000Z,100302
2018-07-15T14:12:07.000Z,100303
2018-07-15T14:14:07.000Z,100300
2018-07-15T14:15:51.000Z,100302
2018-07-15T14:17:07.000Z,100296
2018-07-15T14:19:07.000Z,100303
2018-07-15T14:21:07.000Z,100295
2018-07-15T14:22:07.000Z,100293
2018-07-15T14:24:07.000Z,100299
2018-07-15T14:25:36.000Z,100295
2018-07-15T14:27:07.000Z,100292
2018-07-15T14:28:07.000Z,100296
2018-07-15T14:29:36.000Z,100291
2018-07-15T14:31:07.000Z,100287
2018-07-15T14:33:07.000Z,100287
2018-07-15T14:34:07.000Z,100286
2018-07-15T14:36:07.000Z,100283
2018-07-15T14:38:07.000Z,100288
2018-07-15T14:40:07.000Z,100286
2018-07-15T14:41:51.000Z,100279
2018-07-15T14:43:07.000Z,100278
2018-07-15T14:44:07.000Z,100276
2018-07-15T14:46:07.000Z,100278
2018-07-15T14:48:07.000Z,100275
2018-07-15T14:50:06.000Z,100275
2018-07-15T14:51:06.000Z,100279
2018-07-15T14:53:06.000Z,100275
2018-07-15T14:55:06.000Z,100270
2018-07-15T14:56:06.000Z,100268
2018-07-15T14:58:06.000Z,100271
2018-07-15T15:00:06.000Z,100268
2018-07-15T15:02:06.000Z,100273
2018-07-15T15:03:06.000Z,100262
2018-07-15T15:05:06.000Z,100272
2018-07-15T15:07:06.000Z,100269
2018-07-15T15:09:06.000Z,100267
2018-07-15T15:11:06.000Z,100266
2018-07-15T15:12:06.000Z,100262
2018-07-15T15:13:06.000Z,100264
2018-07-15T15:15:06.000Z,100269
2018-07-15T15:17:06.000Z,100266
2018-07-15T15:18:06.000Z,100266
2018-07-15T15:20:06.000Z,100269
2018-07-15T15:21:06.000Z,100269
2018-07-15T15:22:51.000Z,100268
2018-07-15T15:23:51.000Z,100160
2018-07-15T15:26:06.000Z,100261
2018-07-15T15:28:06.000Z,100255
2018-07-15T15:29:06.000Z,100254
2018-07-15T15:31:06.000Z,100262
2018-07-15T15:33:06.000Z,100260
2018-07-15T15:34:06.000Z,100260
2018-07-15T15:35:06.000Z,100263
2018-07-15T15:37:06.000Z,100254
2018-07-15T15:39:06.000Z,100257
2018-07-15T15:40:51.000Z,100256
2018-07-15T15:42:06.000Z,100262
2018-07-15T15:43:06.000Z,100266
2018-07-15T15:45:06.000Z,100260
2018-07-15T15:47:06.000Z,100262
2018-07-15T15:49:06.000Z,100256
2018-07-15T15:51:06.000Z,100253
2018-07-15T15:53:06.000Z,100247
2018-07-15T15:55:06.000Z,100244
2018-07-15T15:57:06.000Z,100241
2018-07-15T15:58:51.000Z,100237
2018-07-15T16:00:06.000Z,100240
2018-07-15T16:01:51.000Z,100238
2018-07-15T16:03:06.000Z,100240
2018-07-15T16:04:06.000Z,100237
2018-07-15T16:05:51.000Z,100240
2018-07-15T16:07:06.000Z,100238
2018-07-15T16:09:06.000Z,100243
2018-07-15T16:10:06.000Z,100239
2018-07-15T16:12:06.000Z,100236
2018-07-15T16:13:06.000Z,100237
2018-07-15T16:14:06.000Z,100234
2018-07-15T16:16:06.000Z,100236
2018-07-15T16:17:36.000Z,100234
2018-07-15T16:19:06.000Z,100236
2018-07-15T16:21:06.000Z,100232
2018-07-15T16:23:06.000Z,100229
2018-07-15T16:24:06.000Z,100230
2018-07-15T16:26:06.000Z,100236
2018-07-15T16:28:06.000Z,100238
2018-07-15T16:30:06.000Z,100229
2018-07-15T16:31:51.000Z,100232
2018-07-15T16:33:06.000Z,100232
2018-07-15T16:34:51.000Z,100234
2018-07-15T16:36:06.000Z,100230
2018-07-15T16:38:06.000Z,100237
2018-07-15T16:40:06.000Z,100232
2018-07-15T16:42:06.000Z,100234
2018-07-15T16:43:06.000Z,100229
2018-07-15T16:45:06.000Z,100237
2018-07-15T16:46:06.000Z,100236
2018-07-15T16:47:06.000Z,100234
2018-07-15T16:48:06.000Z,100238
2018-07-15T16:50:06.000Z,100228
2018-07-15T16:51:06.000Z,100233
2018-07-15T16:53:06.000Z,100230
2018-07-15T16:55:06.000Z,100240
2018-07-15T16:57:06.000Z,100241
2018-07-15T16:59:06.000Z,100240
2018-07-15T17:00:06.000Z,100245
2018-07-15T17:05:07.000Z,100233
2018-07-15T17:06:52.000Z,100236
2018-07-15T17:07:52.000Z,100235
2018-07-15T17:09:52.000Z,100236
2018-07-15T17:11:52.000Z,100237
2018-07-15T17:13:52.000Z,100232
2018-07-15T17:14:52.000Z,100231
2018-07-15T17:16:52.000Z,100229
2018-07-15T17:17:52.000Z,100230
2018-07-15T17:19:52.000Z,100225
2018-07-15T17:21:52.000Z,100230
2018-07-15T17:23:52.000Z,100226
2018-07-15T17:25:52.000Z,100223
2018-07-15T17:26:52.000Z,100222
2018-07-15T17:28:52.000Z,100220
2018-07-15T17:30:52.000Z,100216
2018-07-15T17:32:52.000Z,100213
2018-07-15T17:34:37.000Z,100211
2018-07-15T17:35:52.000Z,100211
2018-07-15T17:37:52.000Z,100208
2018-07-15T17:39:37.000Z,100206
2018-07-15T17:40:52.000Z,100206
2018-07-15T17:42:52.000Z,100206
2018-07-15T17:44:52.000Z,100206
2018-07-15T17:46:37.000Z,100207
2018-07-15T17:47:52.000Z,100209
2018-07-15T17:49:52.000Z,100204
2018-07-15T17:51:52.000Z,100207
2018-07-15T17:53:37.000Z,100215
2018-07-15T17:54:52.000Z,100206
2018-07-15T17:55:52.000Z,100205
2018-07-15T17:57:52.000Z,100209
2018-07-15T17:59:37.000Z,100207
2018-07-15T18:00:37.000Z,100207
2018-07-15T18:01:52.000Z,100202
2018-07-15T18:02:52.000Z,100202
2018-07-15T18:04:52.000Z,100206
2018-07-15T18:06:52.000Z,100208
2018-07-15T18:08:52.000Z,100210
2018-07-15T18:09:52.000Z,100210
2018-07-15T18:11:52.000Z,100210
2018-07-15T18:13:37.000Z,100207
2018-07-15T18:14:52.000Z,100210
2018-07-15T18:15:52.000Z,100212
2018-07-15T18:17:52.000Z,100210
2018-07-15T18:18:52.000Z,100207
2018-07-15T18:20:52.000Z,100208
2018-07-15T18:22:52.000Z,100214
2018-07-15T18:24:52.000Z,100213
2018-07-15T18:26:52.000Z,100217
2018-07-15T18:28:52.000Z,100214
2018-07-15T18:30:52.000Z,100218
2018-07-15T18:32:52.000Z,100213
2018-07-15T18:33:52.000Z,100215
2018-07-15T18:35:52.000Z,100216
2018-07-15T18:37:52.000Z,100219
2018-07-15T18:39:52.000Z,100215
2018-07-15T18:41:52.000Z,100223
2018-07-15T18:43:52.000Z,100223
2018-07-15T18:45:52.000Z,100225
2018-07-15T18:46:52.000Z,100221
2018-07-15T18:48:52.000Z,100224
2018-07-15T18:49:52.000Z,100228
2018-07-15T18:51:52.000Z,100226
2018-07-15T18:53:37.000Z,100226
2018-07-15T18:54:52.000Z,100230
2018-07-15T18:56:52.000Z,100225
2018-07-15T18:58:52.000Z,100224
2018-07-15T19:00:52.000Z,100228
2018-07-15T19:02:52.000Z,100232
2018-07-15T19:04:52.000Z,100232
2018-07-15T19:06:52.000Z,100232
2018-07-15T19:07:52.000Z,100232
2018-07-15T19:08:52.000Z,100235
2018-07-15T19:10:52.000Z,100242
2018-07-15T19:11:52.000Z,100233
2018-07-15T19:13:37.000Z,100238
2018-07-15T19:14:52.000Z,100237
2018-07-15T19:16:22.000Z,100233
2018-07-15T19:17:52.000Z,100235
2018-07-15T19:19:52.000Z,100238
2018-07-15T19:21:52.000Z,100233
2018-07-15T19:23:52.000Z,100228
2018-07-15T19:25:52.000Z,100233
2018-07-15T19:26:52.000Z,100230
2018-07-15T19:27:52.000Z,100237
2018-07-15T19:29:37.000Z,100238
2018-07-15T19:30:52.000Z,100240
2018-07-15T19:31:52.000Z,100242
2018-07-15T19:33:52.000Z,100236
2018-07-15T19:35:52.000Z,100243
2018-07-15T19:37:52.000Z,100246
2018-07-15T19:39:22.000Z,100245
2018-07-15T19:40:52.000Z,100249
2018-07-15T19:42:52.000Z,100247
2018-07-15T19:44:52.000Z,100251
2018-07-15T19:45:52.000Z,100251
2018-07-15T19:47:52.000Z,100254
2018-07-15T19:48:52.000Z,100249
2018-07-15T19:50:52.000Z,100257
2018-07-15T19:51:52.000Z,100258
2018-07-15T19:52:52.000Z,100262
2018-07-15T19:54:37.000Z,100259
2018-07-15T19:55:52.000Z,100262
2018-07-15T19:57:52.000Z,100263
2018-07-15T19:59:52.000Z,100263
2018-07-15T20:01:37.000Z,100265
2018-07-15T20:02:52.000Z,100268
2018-07-15T20:03:52.000Z,100265
2018-07-15T20:05:52.000Z,100273
2018-07-15T20:06:52.000Z,100272
2018-07-15T20:08:52.000Z,100274
2018-07-15T20:09:52.000Z,100270
2018-07-15T20:10:52.000Z,100273
2018-07-15T20:12:52.000Z,100276
2018-07-15T20:14:52.000Z,100269
2018-07-15T20:16:37.000Z,100203
2018-07-15T20:17:52.000Z,100280
2018-07-15T20:18:52.000Z,100277
2018-07-15T20:20:52.000Z,100281
2018-07-15T20:21:52.000Z,100279
2018-07-15T20:23:52.000Z,100277
2018-07-15T20:25:52.000Z,100278
2018-07-15T20:27:52.000Z,100278
2018-07-15T20:28:52.000Z,100277